Latest Weather Observations for Yarram Airport

IDV60801

Issued at 2:32 pm EST Sunday 28 May 2017 (issued every 30 minutes, with the page automatically refreshed every 10 minutes)

About weather observations | Map of weather stations | Latest weather observations for VIC | Other Formats
Station Details ID: 085151 Name: YARRAM AIRPORT Lat: -38.56 Lon: 146.75 Height: 17.9 m
Data from the previous 72 hours. | See also: Recent months at Yarram Airport
Date/Time
EST
Temp
°C
App
Temp
°C
Dew
Point
°C
Rel
Hum
%
Delta-T
°C
Wind Press
QNH
hPa
Press
MSL
hPa
Rain since
9am
mm
Dir  Spd
km/h
Gust
km/h
Spd
kts
Gust
kts
28/02:30pm 12.2 7.2 6.3 67 2.8 W 22 35 12 19 1005.7 1005.7 0.0
28/02:00pm 13.6 7.5 6.7 63 3.3 WNW 28 35 15 19 1005.5 1005.5 0.0
28/01:30pm 13.1 6.5 6.2 63 3.3 WNW 30 41 16 22 1005.4 1005.4 0.0
28/01:00pm 12.9 6.0 6.3 64 3.2 WNW 32 46 17 25 1005.1 1005.1 0.0
28/12:54pm 13.2 6.9 5.6 60 3.6 WNW 28 46 15 25 1005.0 1005.0 0.0
28/12:30pm 13.9 7.0 6.3 60 3.6 NW 32 46 17 25 1005.1 1005.1 0.0
28/12:00pm 13.2 8.6 6.5 64 3.2 WNW 20 32 11 17 1005.3 1005.3 0.0
28/11:30am 11.9 5.7 6.2 68 2.7 WNW 28 39 15 21 1005.9 1005.9 0.0
28/11:00am 12.3 5.4 6.6 68 2.7 WNW 32 43 17 23 1006.1 1006.1 0.0
28/10:30am 13.1 8.5 8.0 71 2.5 WNW 22 32 12 17 1006.2 1006.2 0.0
28/10:00am 12.3 6.9 7.8 74 2.2 WNW 26 35 14 19 1006.1 1006.1 0.0
28/09:30am 11.8 7.6 8.1 78 1.8 WNW 20 28 11 15 1006.2 1006.2 0.0
28/09:00am 10.8 7.1 8.0 83 1.4 WNW 17 24 9 13 1006.1 1006.1 2.2
28/08:30am 10.2 7.2 7.8 85 1.2 WNW 13 17 7 9 1005.9 1005.9 2.2
28/08:00am 10.3 7.3 7.9 85 1.2 WNW 13 20 7 11 1005.7 1005.7 2.2
28/07:30am 9.7 7.3 7.1 84 1.2 SW 9 13 5 7 1005.5 1005.5 2.2
28/07:00am 9.8 7.4 6.9 82 1.4 W 9 13 5 7 1005.4 1005.4 2.2
28/06:30am 10.1 7.4 7.5 84 1.2 WSW 11 15 6 8 1005.5 1005.5 2.2
28/06:00am 9.9 6.9 7.5 85 1.1 SW 13 13 7 7 1005.5 1005.5 2.2
28/05:30am 10.7 7.0 7.8 82 1.4 NW 17 20 9 11 1005.2 1005.2 2.2
28/05:00am 11.4 7.4 8.3 81 1.5 NNW 19 24 10 13 1005.2 1005.2 2.2
28/04:30am 10.8 7.3 8.7 87 1.0 NNW 17 26 9 14 1005.4 1005.4 2.2
28/04:00am 10.3 7.5 8.7 90 0.8 NNW 13 15 7 8 1005.9 1005.9 2.2
28/03:30am 10.7 5.1 8.6 87 1.0 WNW 28 41 15 22 1007.1 1007.1 1.8
28/03:04am 14.2 8.6 7.3 63 3.4 NNW 26 65 14 35 1006.9 1006.9 0.0
28/03:00am 15.6 10.3 6.9 56 4.3 NNW 24 32 13 17 1005.5 1005.5 0.0
28/02:30am 15.0 10.0 6.6 57 4.1 N 22 32 12 17 1005.0 1005.0 0.0
28/02:00am 15.1 10.1 6.4 56 4.2 N 22 30 12 16 1005.5 1005.5 0.0
28/01:30am 14.2 9.2 6.3 59 3.8 N 22 30 12 16 1006.0 1006.0 0.0
28/01:00am 13.9 10.3 6.7 62 3.5 N 15 20 8 11 1006.7 1006.7 0.0
28/12:30am 12.2 9.6 6.3 67 2.8 ENE 9 13 5 7 1007.4 1007.4 0.0
28/12:00am 12.8 10.3 6.6 66 3.0 NE 9 15 5 8 1008.0 1008.0 0.0
 
Date/Time
EST
Temp
°C
App
Temp
°C
Dew
Point
°C
Rel
Hum
%
Delta-T
°C
Wind Press
QNH
hPa
Press
MSL
hPa
Rain since
9am
mm
Dir  Spd
km/h
Gust
km/h
Spd
kts
Gust
kts
27/11:30pm 13.5 11.4 6.8 64 3.2 E 7 9 4 5 1008.5 1008.5 0.0
27/11:00pm 15.6 12.0 6.9 56 4.3 NNE 15 22 8 12 1008.6 1008.6 0.0
27/10:30pm 15.1 11.2 7.2 59 3.9 N 17 24 9 13 1009.0 1009.0 0.0
27/10:00pm 14.0 10.7 6.6 61 3.6 ENE 13 17 7 9 1009.5 1009.5 0.0
27/09:30pm 13.7 10.8 6.6 62 3.4 ENE 11 15 6 8 1009.8 1009.8 0.0
27/09:00pm 14.2 10.2 6.8 61 3.6 NE 17 22 9 12 1010.1 1010.1 0.0
27/08:30pm 13.7 10.4 6.3 61 3.5 NE 13 17 7 9 1010.7 1010.7 0.0
27/08:00pm 14.3 11.0 6.4 59 3.8 NNE 13 19 7 10 1010.9 1010.9 0.0
27/07:30pm 15.0 10.7 6.8 58 4.0 NNE 19 22 10 12 1011.1 1011.1 0.0
27/07:00pm 15.4 11.0 6.4 55 4.4 N 19 22 10 12 1011.3 1011.3 0.0
27/06:30pm 14.7 10.3 6.5 58 4.0 N 19 20 10 11 1011.4 1011.4 0.0
27/06:00pm 15.2 11.7 7.0 58 4.0 N 15 22 8 12 1011.4 1011.4 0.0
27/05:30pm 13.4 10.1 6.5 63 3.3 N 13 19 7 10 1011.6 1011.6 0.0
27/05:00pm 14.3 10.8 7.4 63 3.4 N 15 19 8 10 1011.6 1011.6 0.0
27/04:30pm 15.0 11.8 8.3 64 3.4 N 15 17 8 9 1011.6 1011.6 0.0
27/04:00pm 15.4 12.8 9.5 68 3.1 N 13 15 7 8 1011.8 1011.8 0.0
27/03:30pm 16.2 14.3 10.5 69 3.0 N 11 13 6 7 1012.2 1012.2 0.0
27/03:00pm 17.2 15.4 10.8 66 3.4 N 11 15 6 8 1012.3 1012.3 0.0
27/02:30pm 17.4 15.1 10.5 64 3.7 N 13 15 7 8 1012.6 1012.6 0.0
27/02:00pm 17.8 15.0 9.9 60 4.2 NNE 15 19 8 10 1013.1 1013.1 0.0
27/01:30pm 18.2 15.6 9.5 57 4.6 N 13 19 7 10 1013.7 1013.7 0.0
27/01:00pm 18.0 14.7 9.4 57 4.5 N 17 24 9 13 1014.2 1014.2 0.0
27/12:30pm 18.8 15.5 9.6 55 4.9 N 17 24 9 13 1014.7 1014.7 0.0
27/12:00pm 18.5 15.2 9.6 56 4.7 N 17 22 9 12 1015.5 1015.5 0.0
27/11:30am 18.0 14.7 9.4 57 4.5 NNW 17 24 9 13 1016.0 1016.0 0.0
27/11:00am 17.4 13.9 10.1 62 3.9 N 19 24 10 13 1016.5 1016.5 0.0
27/10:30am 16.1 14.0 11.1 72 2.7 N 13 19 7 10 1016.9 1016.9 0.0
27/10:00am 14.0 12.1 10.6 80 1.8 N 11 13 6 7 1017.3 1017.3 0.0
27/09:30am 12.8 11.1 10.0 83 1.4 NNE 9 11 5 6 1017.6 1017.6 0.0
27/09:00am 12.3 10.4 9.1 81 1.6 NNE 9 9 5 5 1017.8 1017.8 0.0
27/08:30am 11.5 9.4 8.4 81 1.5 NE 9 11 5 6 1017.9 1017.9 0.0
27/08:00am 11.0 8.2 8.4 84 1.3 NNE 13 15 7 8 1017.9 1017.9 0.0
27/07:30am 9.5 6.0 7.4 87 1.0 NNE 15 17 8 9 1017.8 1017.8 0.0
27/07:00am 9.7 7.4 7.3 85 1.1 NNE 9 13 5 7 1017.9 1017.9 0.0
27/06:30am 9.7 6.8 8.1 90 0.8 N 13 17 7 9 1017.6 1017.6 0.0
27/06:00am 8.1 4.5 6.9 92 0.6 N 15 17 8 9 1017.6 1017.6 0.0
27/05:30am 7.8 4.6 6.9 94 0.4 NNE 13 13 7 7 1017.7 1017.7 0.0
27/05:00am 7.6 3.7 6.9 95 0.3 NNE 17 19 9 10 1017.6 1017.6 0.0
27/04:30am 6.7 4.0 5.8 94 0.4 NNE 9 13 5 7 1017.8 1017.8 0.0
27/04:00am 8.3 5.3 7.5 95 0.4 N 13 15 7 8 1018.0 1018.0 0.0
27/03:30am 7.2 3.9 6.3 94 0.4 N 13 15 7 8 1018.2 1018.2 0.0
27/03:00am 5.4 2.8 4.2 92 0.5 N 7 9 4 5 1018.6 1018.6 0.0
27/02:30am 7.6 5.1 6.4 92 0.5 NE 9 11 5 6 1018.9 1018.9 0.0
27/02:00am 7.6 5.4 6.2 91 0.6 NE 7 9 4 5 1019.1 1019.1 0.0
27/01:30am 8.1 4.5 6.7 91 0.6 NNE 15 17 8 9 1019.1 1019.1 0.0
27/01:00am 8.6 5.4 6.9 89 0.8 NE 13 15 7 8 1019.5 1019.5 0.0
27/12:30am 8.4 5.3 7.2 92 0.6 NNE 13 15 7 8 1019.8 1019.8 0.0
27/12:00am 8.4 4.5 7.0 91 0.7 NNE 17 17 9 9 1020.0 1020.0 0.0
 
Date/Time
EST
Temp
°C
App
Temp
°C
Dew
Point
°C
Rel
Hum
%
Delta-T
°C
Wind Press
QNH
hPa
Press
MSL
hPa
Rain since
9am
mm
Dir  Spd
km/h
Gust
km/h
Spd
kts
Gust
kts
26/11:30pm 9.7 5.7 8.3 91 0.7 NNE 19 22 10 12 1020.1 1020.2 0.0
26/11:00pm 7.2 5.0 6.3 94 0.4 NNE 7 11 4 6 1020.2 1020.3 0.0
26/10:30pm 7.6 5.7 6.7 94 0.4 NNE 6 7 3 4 1020.3 1020.4 0.0
26/10:00pm 7.6 5.5 6.7 94 0.4 NE 7 7 4 4 1020.5 1020.6 0.0
26/09:30pm 8.2 5.9 7.3 94 0.4 NE 9 11 5 6 1020.7 1020.8 0.0
26/09:00pm 7.2 4.2 6.0 92 0.5 NNE 11 13 6 7 1020.8 1020.9 0.0
26/08:30pm 8.3 5.2 7.2 93 0.5 NNE 13 15 7 8 1020.8 1020.9 0.0
26/08:00pm 9.0 6.4 7.9 93 0.5 NE 11 13 6 7 1020.7 1020.8 0.0
26/07:30pm 8.8 6.6 7.7 93 0.5 NE 9 9 5 5 1020.6 1020.7 0.0
26/07:00pm 8.9 7.1 7.8 93 0.5 N 7 9 4 5 1020.7 1020.8 0.0
26/06:30pm 9.2 7.4 8.0 92 0.6 NNE 7 9 4 5 1020.5 1020.6 0.0
26/06:00pm 8.9 7.2 7.4 90 0.7 N 6 6 3 3 1020.3 1020.4 0.0
26/05:30pm 9.1 8.3 6.7 85 1.1 CALM 0 0 0 0 1020.3 1020.4 0.0
26/05:00pm 10.8 10.1 7.1 78 1.8 CALM 0 0 0 0 1020.2 1020.3 0.0
26/04:30pm 12.8 10.9 9.1 78 1.9 SSW 9 11 5 6 1020.1 1020.2 0.0
26/04:00pm 14.3 12.1 9.3 72 2.5 SSW 11 15 6 8 1020.1 1020.2 0.0
26/03:30pm 14.5 12.6 9.1 70 2.8 SSW 9 17 5 9 1020.2 1020.3 0.0
26/03:00pm 15.5 13.1 10.1 70 2.8 SW 13 15 7 8 1020.1 1020.2 0.0
26/02:30pm 15.2 13.1 9.8 70 2.8 SW 11 15 6 8 1020.1 1020.2 0.0
26/02:00pm 15.8 13.0 10.1 69 3.0 SW 15 19 8 10 1020.3 1020.4 0.0
26/01:30pm 15.9 13.0 9.6 66 3.3 WSW 15 20 8 11 1020.5 1020.6 0.0
26/01:00pm 15.4 10.8 6.7 56 4.2 W 20 26 11 14 1020.6 1020.7 0.0
26/12:30pm 16.4 12.4 8.9 61 3.9 W 20 28 11 15 1020.9 1021.0 0.0
26/12:00pm 16.0 12.4 8.2 60 3.9 W 17 22 9 12 1021.3 1021.4 0.0
26/11:30am 15.6 12.1 8.6 63 3.6 WSW 17 24 9 13 1021.6 1021.7 0.0
26/11:00am 14.6 10.7 8.8 68 2.9 WSW 19 24 10 13 1022.0 1022.1 0.0
26/10:30am 14.9 11.2 9.5 70 2.8 WSW 19 24 10 13 1022.1 1022.2 0.0
26/10:00am 14.6 12.3 10.4 76 2.2 W 13 19 7 10 1022.0 1022.1 0.0
26/09:30am 13.8 11.5 10.4 80 1.8 W 13 20 7 11 1021.9 1022.0 0.0
26/09:00am 13.1 11.3 10.8 86 1.2 W 11 15 6 8 1021.9 1022.0 0.6
26/08:30am 11.9 8.7 10.1 89 0.9 W 17 20 9 11 1021.5 1021.6 0.6
26/08:00am 11.5 9.4 9.9 90 0.8 WNW 11 13 6 7 1021.5 1021.6 0.6
26/07:30am 10.9 8.3 9.2 89 0.8 WNW 13 17 7 9 1020.9 1021.0 0.6
26/07:00am 11.3 9.2 9.7 90 0.8 WNW 11 17 6 9 1020.7 1020.8 0.6
26/06:30am 11.9 9.6 10.5 91 0.7 WNW 13 17 7 9 1020.4 1020.5 0.6
26/06:00am 12.2 9.7 11.1 93 0.6 W 15 20 8 11 1020.0 1020.0 0.6
26/05:30am 12.0 9.2 11.2 95 0.4 WNW 17 20 9 11 1019.5 1019.5 0.6
26/05:00am 12.3 10.0 11.7 96 0.3 WNW 15 20 8 11 1019.2 1019.2 0.6
26/04:30am 12.3 10.7 11.5 95 0.4 W 11 15 6 8 1018.9 1018.9 0.6
26/04:00am 12.4 10.4 11.6 95 0.4 WSW 13 15 7 8 1018.7 1018.7 0.6
26/03:30am 12.5 10.9 11.6 94 0.5 W 11 13 6 7 1018.6 1018.6 0.4
26/03:00am 12.8 10.9 11.7 93 0.6 W 13 19 7 10 1018.5 1018.5 0.4
26/02:30am 12.5 11.7 11.6 94 0.5 WNW 7 9 4 5 1018.4 1018.4 0.4
26/02:00am 12.5 11.7 11.6 94 0.5 W 7 11 4 6 1018.2 1018.2 0.4
26/01:30am 12.6 11.4 11.5 93 0.6 W 9 11 5 6 1018.1 1018.1 0.4
26/01:00am 12.8 10.9 11.7 93 0.6 W 13 17 7 9 1018.1 1018.1 0.2
26/12:30am 13.1 10.7 11.3 89 1.0 WSW 15 20 8 11 1018.1 1018.1 0.2
26/12:00am 13.6 11.0 10.8 83 1.5 W 15 20 8 11 1017.9 1017.9 0.0
 
Date/Time
EST
Temp
°C
App
Temp
°C
Dew
Point
°C
Rel
Hum
%
Delta-T
°C
Wind Press
QNH
hPa
Press
MSL
hPa
Rain since
9am
mm
Dir  Spd
km/h
Gust
km/h
Spd
kts
Gust
kts
25/11:30pm 14.7 11.1 10.5 76 2.2 WNW 20 35 11 19 1017.8 1017.8 0.0
25/11:00pm 14.4 10.7 10.2 76 2.2 WNW 20 28 11 15 1017.7 1017.7 0.0
25/10:30pm 13.6 10.5 10.2 80 1.8 NW 17 20 9 11 1017.4 1017.4 0.0
25/10:00pm 13.3 10.4 9.7 79 1.8 NW 15 20 8 11 1017.4 1017.4 0.0
25/09:30pm 13.9 10.2 9.5 75 2.3 WNW 19 30 10 16 1017.4 1017.4 0.0
25/09:00pm 13.3 10.4 9.5 78 1.9 WNW 15 20 8 11 1017.5 1017.5 0.0
25/08:30pm 13.8 10.1 9.5 75 2.2 WNW 19 28 10 15 1017.3 1017.3 0.0
25/08:00pm 13.9 10.4 8.9 72 2.5 NW 17 28 9 15 1017.2 1017.2 0.0
25/07:30pm 14.1 10.0 8.5 69 2.8 NW 20 30 11 16 1017.4 1017.4 0.0
25/07:00pm 14.0 9.8 8.4 69 2.8 WNW 20 28 11 15 1017.2 1017.2 0.0
25/06:30pm 13.7 9.5 8.1 69 2.8 NW 20 28 11 15 1017.0 1017.0 0.0
25/06:00pm 13.4 10.0 7.8 69 2.8 NW 15 30 8 16 1017.1 1017.1 0.0
25/05:30pm 12.6 10.4 7.7 72 2.4 W 9 20 5 11 1017.0 1017.0 0.0
25/05:00pm 13.5 9.8 7.9 69 2.8 NW 17 24 9 13 1016.8 1016.8 0.0
25/04:30pm 14.5 10.4 8.0 65 3.2 NW 19 24 10 13 1016.9 1016.9 0.0
25/04:00pm 15.0 11.0 8.3 64 3.4 NW 19 26 10 14 1017.2 1017.2 0.0
25/03:30pm 15.3 11.5 9.0 66 3.2 WNW 19 26 10 14 1017.3 1017.3 0.0
25/03:00pm 14.7 10.5 8.4 66 3.2 WNW 20 32 11 17 1017.2 1017.2 0.0

Other Formats:

Comma delimited format used in spreadsheet applications
http://www.bom.gov.au/fwo/IDV60801/IDV60801.95890.axf

JavaScript Object Notation format (JSON) in row-major order
http://www.bom.gov.au/fwo/IDV60801/IDV60801.95890.json